Time;durP1;ratioP1;P1;durP2;ratioP2;P2;SDS_P1;SDS_P2;PMS_P1;PMS_P2;Temp;Humidity;BMP_temperature;BMP_pressure;BME280_temperature;BME280_humidity;BME280_pressure;Samples;Min_cycle;Max_cycle;Signal;HPM_P1;HPM_P2
2022/03/13 00:02:16;;;;;;;;;7.40;7.00;;;;;9.55;69.84;100481.50;5037332;28;45545;-60
2022/03/13 00:04:49;;;;;;;;;10.00;7.00;;;;;9.58;69.73;100481.91;5068481;28;45470;-60
2022/03/13 00:07:19;;;;;;;;;8.00;7.80;;;;;9.65;69.80;100486.53;5037333;28;45528;-60
2022/03/13 00:09:49;;;;;;;;;10.40;9.40;;;;;9.48;69.26;100460.41;5068626;28;47180;-61
2022/03/13 00:12:15;;;;;;;;;11.80;9.20;;;;;9.58;68.85;100468.22;5052036;28;45460;-61
2022/03/13 00:14:43;;;;;;;;;7.50;7.50;;;;;9.69;69.39;100482.31;5069639;28;45415;-60
2022/03/13 00:17:11;;;;;;;;;8.20;7.60;;;;;9.63;68.94;100471.16;5070151;28;45444;-61
2022/03/13 00:19:36;;;;;;;;;9.20;8.80;;;;;9.34;69.01;100434.91;5052174;28;45341;-61
2022/03/13 00:22:04;;;;;;;;;8.25;8.00;;;;;9.69;69.16;100482.31;5035977;28;45543;-60
2022/03/13 00:24:30;;;;;;;;;9.00;8.00;;;;;9.71;68.40;100482.94;5035681;28;45459;-61
2022/03/13 00:26:56;;;;;;;;;7.00;7.00;;;;;9.65;68.59;100470.09;5037090;28;45442;-60
2022/03/13 00:29:22;;;;;;;;;6.00;6.00;;;;;9.42;68.53;100433.88;5037034;28;45350;-60
2022/03/13 00:31:47;;;;;;;;;8.00;7.50;;;;;9.54;67.76;100463.38;5036828;28;45359;-61
2022/03/13 00:34:14;;;;;;;;;7.00;6.00;;;;;9.73;67.81;100489.06;5069367;28;45447;-59
2022/03/13 00:36:40;;;;;;;;;9.00;9.00;;;;;9.74;67.37;100482.50;5037017;28;45333;-59
2022/03/13 00:39:06;;;;;;;;;7.00;6.00;;;;;9.78;67.67;100486.53;5052003;28;47791;-58
2022/03/13 00:41:31;;;;;;;;;6.75;6.75;;;;;9.74;66.26;100474.28;5036695;28;45237;-59
2022/03/13 00:43:57;;;;;;;;;4.50;4.50;;;;;9.78;66.65;100489.28;5036319;28;45420;-61
2022/03/13 00:46:22;;;;;;;;;7.25;7.25;;;;;9.76;67.12;100474.91;5036949;28;45408;-59
2022/03/13 00:48:48;;;;;;;;;8.25;7.00;;;;;9.81;66.78;100477.88;5036262;28;45803;-61
2022/03/13 00:51:14;;;;;;;;;9.00;7.00;;;;;9.84;66.45;100471.97;5036314;28;45376;-60
2022/03/13 00:53:39;;;;;;;;;7.50;7.50;;;;;9.84;66.16;100469.22;5036716;28;45360;-60
2022/03/13 00:56:05;;;;;;;;;9.25;6.00;;;;;9.83;66.45;100462.03;5034874;28;45629;-60
2022/03/13 00:58:30;;;;;;;;;5.00;5.00;;;;;9.87;66.00;100467.97;5036210;28;45828;-59
2022/03/13 01:00:56;;;;;;;;;5.50;4.50;;;;;9.54;65.76;100416.78;5035837;28;45639;-59
2022/03/13 01:03:49;;;;;;;;;7.50;6.25;;;;;9.68;66.00;100429.41;5034881;28;45399;-59
2022/03/13 01:06:16;;;;;;;;;7.40;7.00;;;;;9.88;65.18;100464.97;5036273;28;45439;-59
2022/03/13 01:08:43;;;;;;;;;6.20;5.20;;;;;9.80;64.88;100447.91;5036047;28;46426;-59
2022/03/13 01:11:08;;;;;;;;;6.20;5.60;;;;;9.92;64.79;100464.56;5035785;28;45608;-59
2022/03/13 01:13:35;;;;;;;;;6.50;6.00;;;;;9.94;65.98;100456.97;5034877;28;45399;-59
2022/03/13 01:16:12;;;;;;;;;5.00;5.00;;;;;9.96;65.48;100457.59;5035870;28;45612;-60
2022/03/13 01:19:05;;;;;;;;;3.80;3.80;;;;;10.00;65.53;100458.84;5034453;28;46468;-60
2022/03/13 01:21:37;;;;;;;;;7.40;7.00;;;;;9.80;65.44;100429.59;5035333;28;45228;-59
2022/03/13 01:24:05;;;;;;;;;7.40;7.00;;;;;10.00;64.90;100448.72;5035612;28;45274;-59
2022/03/13 01:26:37;;;;;;;;;6.80;4.00;;;;;10.05;64.61;100448.09;5035815;28;45342;-59
2022/03/13 01:29:20;;;;;;;;;6.40;5.20;;;;;10.04;64.40;100440.91;5035649;28;45408;-59
2022/03/13 01:31:47;;;;;;;;;7.00;7.00;;;;;10.06;64.08;100444.28;5035495;28;45451;-61
2022/03/13 01:34:31;;;;;;;;;5.80;5.20;;;;;10.06;64.80;100436.06;5034422;28;45392;-59
2022/03/13 01:36:57;;;;;;;;;3.20;3.20;;;;;10.07;64.80;100435.00;5035535;28;45386;-60
2022/03/13 01:39:22;;;;;;;;;5.50;5.50;;;;;10.08;64.56;100442.16;5035257;28;46205;-59
2022/03/13 01:41:48;;;;;;;;;4.00;4.00;;;;;10.09;64.45;100432.03;5035573;28;45385;-60
2022/03/13 01:44:13;;;;;;;;;4.00;4.00;;;;;10.07;64.03;100429.50;5035347;28;45423;-60
2022/03/13 01:46:39;;;;;;;;;3.75;2.75;;;;;10.08;63.77;100425.69;5034449;28;45464;-61
2022/03/13 01:49:08;;;;;;;;;8.00;6.00;;;;;10.06;63.54;100425.09;5034931;28;45440;-60
2022/03/13 01:51:34;;;;;;;;;3.40;3.40;;;;;9.92;64.83;100407.81;5034041;28;45492;-60
2022/03/13 01:54:02;;;;;;;;;3.80;3.80;;;;;10.09;63.83;100427.38;5067890;28;45424;-60
2022/03/13 01:56:27;;;;;;;;;7.60;4.80;;;;;10.08;63.78;100419.41;5066816;28;45265;-60
2022/03/13 01:58:54;;;;;;;;;7.00;4.00;;;;;10.08;63.85;100425.69;5068122;28;45444;-59
2022/03/13 02:01:20;;;;;;;;;3.80;3.80;;;;;10.01;64.28;100405.69;5035591;28;45444;-59
2022/03/13 02:03:46;;;;;;;;;2.60;2.60;;;;;10.06;63.85;100416.00;5035616;28;45612;-59
2022/03/13 02:06:12;;;;;;;;;7.75;4.50;;;;;10.01;63.67;100409.28;5035972;28;45518;-60
2022/03/13 02:08:38;;;;;;;;;4.00;4.00;;;;;9.93;64.52;100397.72;5035133;28;45388;-59
2022/03/13 02:11:04;;;;;;;;;7.50;5.50;;;;;9.90;64.31;100391.63;5035440;28;45249;-59
2022/03/13 02:13:31;;;;;;;;;7.80;6.80;;;;;9.89;64.20;100398.13;5035130;28;45409;-59
2022/03/13 02:15:57;;;;;;;;;5.20;5.20;;;;;9.89;64.67;100395.38;5035426;28;45632;-59
2022/03/13 02:18:22;;;;;;;;;6.00;6.00;;;;;9.86;65.24;100393.09;5035218;28;45371;-60
2022/03/13 02:20:48;;;;;;;;;5.50;2.75;;;;;9.83;65.19;100382.53;5035336;28;45345;-59
2022/03/13 02:23:20;;;;;;;;;6.00;6.00;;;;;9.81;65.55;100384.66;5035523;28;45287;-59
2022/03/13 02:25:50;;;;;;;;;6.40;5.60;;;;;9.75;65.05;100382.78;5035088;28;45364;-59
2022/03/13 02:28:21;;;;;;;;;6.60;6.60;;;;;9.56;64.27;100352.47;5035129;28;45856;-59
2022/03/13 02:30:48;;;;;;;;;5.20;4.80;;;;;9.71;65.34;100376.91;5066698;28;45481;-59
2022/03/13 02:33:16;;;;;;;;;7.00;7.00;;;;;9.68;65.45;100377.34;5035227;28;45314;-60
2022/03/13 02:35:41;;;;;;;;;7.40;6.40;;;;;9.55;64.86;100359.03;5035562;28;45205;-60
2022/03/13 02:38:07;;;;;;;;;6.75;5.50;;;;;9.62;64.90;100367.25;5067335;28;45695;-59
2022/03/13 02:40:32;;;;;;;;;6.75;5.50;;;;;9.63;65.51;100363.44;5034894;28;45344;-59
2022/03/13 02:42:58;;;;;;;;;7.00;6.00;;;;;9.59;64.66;100362.16;5033413;28;45414;-59
2022/03/13 02:45:34;;;;;;;;;8.00;6.75;;;;;9.39;64.99;100332.09;5067993;28;45381;-59
2022/03/13 02:48:00;;;;;;;;;3.20;3.20;;;;;9.51;64.86;100355.03;5033549;28;45876;-59
2022/03/13 02:50:26;;;;;;;;;7.80;7.80;;;;;9.47;65.52;100349.16;5034880;28;45350;-59
2022/03/13 02:52:51;;;;;;;;;10.25;8.00;;;;;9.51;65.67;100359.66;5034820;28;45379;-60
2022/03/13 02:55:17;;;;;;;;;4.50;4.50;;;;;9.33;65.29;100326.41;5035208;28;45276;-59
2022/03/13 02:57:43;;;;;;;;;6.00;5.50;;;;;9.46;65.30;100352.94;5034161;28;46247;-60
2022/03/13 03:00:08;;;;;;;;;5.50;4.00;;;;;9.44;64.56;100357.78;5034423;28;45309;-60
2022/03/13 03:02:35;;;;;;;;;7.25;5.25;;;;;9.37;65.99;100348.75;5034384;28;45371;-59
2022/03/13 03:05:04;;;;;;;;;4.80;4.00;;;;;9.35;64.87;100345.38;5020519;28;45356;-60
2022/03/13 03:07:30;;;;;;;;;7.80;7.40;;;;;9.38;66.06;100350.41;5033445;28;46319;-60
2022/03/13 03:09:55;;;;;;;;;10.50;10.50;;;;;9.37;65.88;100348.75;5034255;28;45379;-60
2022/03/13 03:12:21;;;;;;;;;7.00;5.75;;;;;9.00;65.79;100285.38;5034898;28;45482;-59
2022/03/13 03:14:46;;;;;;;;;6.75;5.50;;;;;9.38;65.51;100349.59;5034345;28;45400;-60
2022/03/13 03:17:12;;;;;;;;;6.00;3.50;;;;;9.36;65.95;100347.88;5036481;28;45968;-60
2022/03/13 03:19:37;;;;;;;;;8.00;6.50;;;;;9.34;64.94;100346.44;5053041;28;45384;-60
2022/03/13 03:22:03;;;;;;;;;6.75;5.50;;;;;9.36;65.67;100347.88;5036558;28;45307;-60
2022/03/13 03:24:28;;;;;;;;;6.00;6.00;;;;;9.34;65.48;100347.28;5036631;28;45306;-59
2022/03/13 03:26:54;;;;;;;;;7.50;7.50;;;;;9.13;64.80;100307.28;5034799;28;47078;-59
2022/03/13 03:29:20;;;;;;;;;5.50;5.50;;;;;9.17;64.83;100311.28;5037322;28;45842;-59
2022/03/13 03:31:47;;;;;;;;;7.25;5.50;;;;;9.28;65.06;100339.91;5037457;28;45330;-60
2022/03/13 03:34:17;;;;;;;;;7.80;7.80;;;;;9.18;64.41;100323.91;5037591;28;45391;-60
2022/03/13 03:36:44;;;;;;;;;6.80;6.40;;;;;9.29;65.29;100341.59;5069650;28;45431;-59
2022/03/13 03:39:10;;;;;;;;;6.00;6.00;;;;;9.28;64.73;100342.63;5037095;28;45263;-60
2022/03/13 03:41:36;;;;;;;;;8.00;7.00;;;;;9.27;64.87;100338.22;5037154;28;45285;-60
2022/03/13 03:44:01;;;;;;;;;7.00;7.00;;;;;9.27;65.50;100338.22;5069888;28;45358;-60
2022/03/13 03:46:27;;;;;;;;;6.75;6.75;;;;;9.21;64.14;100323.50;5037107;28;46660;-59
2022/03/13 03:48:52;;;;;;;;;6.50;4.50;;;;;9.25;65.42;100337.59;5069501;28;45427;-59
2022/03/13 03:51:18;;;;;;;;;6.00;6.00;;;;;9.21;64.77;100328.13;5037074;28;45477;-60
2022/03/13 03:53:43;;;;;;;;;6.50;6.00;;;;;9.12;64.39;100311.06;5035967;28;45329;-60
2022/03/13 03:56:09;;;;;;;;;6.00;6.00;;;;;9.24;64.48;100338.66;5035319;28;46343;-60
2022/03/13 03:58:34;;;;;;;;;7.75;7.75;;;;;9.24;64.79;100338.66;5036985;28;45437;-60
2022/03/13 04:01:00;;;;;;;;;6.50;5.00;;;;;9.24;64.69;100340.53;5037411;28;45415;-60
2022/03/13 04:03:25;;;;;;;;;6.75;6.75;;;;;9.24;64.37;100335.06;5035378;28;45471;-60
2022/03/13 04:05:51;;;;;;;;;6.00;6.00;;;;;8.59;64.17;100224.41;5037045;28;46361;-60
2022/03/13 04:08:17;;;;;;;;;7.00;6.00;;;;;9.23;64.87;100331.47;5036678;28;45384;-61
2022/03/13 04:10:43;;;;;;;;;6.20;3.60;;;;;9.23;65.43;100334.22;5037189;28;45406;-59
2022/03/13 04:13:08;;;;;;;;;8.00;5.00;;;;;9.26;64.79;100333.81;5037029;28;45603;-60
2022/03/13 04:15:34;;;;;;;;;3.75;3.00;;;;;9.19;63.95;100327.50;5036744;28;45382;-60
2022/03/13 04:17:59;;;;;;;;;7.00;7.00;;;;;9.24;64.59;100333.19;5036522;28;45391;-60
2022/03/13 04:20:25;;;;;;;;;8.25;6.50;;;;;9.23;63.40;100336.97;5036887;28;45361;-59
2022/03/13 04:22:51;;;;;;;;;8.40;6.60;;;;;9.18;63.88;100340.34;5036979;28;45477;-60
2022/03/13 04:25:17;;;;;;;;;6.25;6.25;;;;;9.17;63.46;100338.66;5036333;28;45419;-60
2022/03/13 04:27:44;;;;;;;;;5.75;5.75;;;;;8.98;63.66;100314.88;5036740;28;45612;-59
2022/03/13 04:30:10;;;;;;;;;6.20;4.20;;;;;9.18;63.26;100342.25;5036948;28;45483;-60
2022/03/13 04:32:35;;;;;;;;;4.20;4.20;;;;;9.17;63.21;100348.75;5036667;28;45463;-60
2022/03/13 04:35:01;;;;;;;;;5.00;5.00;;;;;8.99;63.12;100313.81;5036620;28;45439;-60
2022/03/13 04:37:27;;;;;;;;;7.00;6.00;;;;;9.18;64.16;100345.81;5036343;28;45400;-60
2022/03/13 04:39:53;;;;;;;;;7.00;7.00;;;;;9.17;63.48;100348.75;5036665;28;45363;-60
2022/03/13 04:42:18;;;;;;;;;6.00;6.00;;;;;9.09;63.67;100333.41;5035732;28;45324;-60
2022/03/13 04:44:44;;;;;;;;;6.50;4.50;;;;;9.15;63.19;100346.25;5035051;28;45573;-62
2022/03/13 04:47:10;;;;;;;;;4.00;4.00;;;;;9.13;63.07;100336.56;5036618;28;45393;-60
2022/03/13 04:49:36;;;;;;;;;5.50;5.50;;;;;9.20;63.22;100351.09;5035055;28;45251;-60
2022/03/13 04:52:02;;;;;;;;;4.25;4.25;;;;;9.21;63.71;100345.41;5036819;28;46034;-60
2022/03/13 04:54:27;;;;;;;;;7.80;4.00;;;;;9.20;62.50;100343.72;5035936;28;45306;-60
2022/03/13 04:56:53;;;;;;;;;4.00;4.00;;;;;9.21;62.66;100347.28;5034752;28;45351;-60
2022/03/13 04:59:18;;;;;;;;;3.50;3.50;;;;;8.97;62.38;100305.84;5051541;28;45323;-60
2022/03/13 05:01:44;;;;;;;;;4.00;4.00;;;;;9.23;62.60;100334.22;5036148;28;45481;-59
2022/03/13 05:04:11;;;;;;;;;4.00;4.00;;;;;9.24;62.54;100332.34;5035603;28;45446;-59
2022/03/13 05:06:38;;;;;;;;;4.25;3.50;;;;;9.23;62.24;100323.25;5035646;28;45459;-60
2022/03/13 05:09:04;;;;;;;;;5.20;4.80;;;;;9.24;62.27;100324.97;5034695;28;45485;-60
2022/03/13 05:11:30;;;;;;;;;3.60;3.60;;;;;9.22;62.07;100316.97;5036088;28;45386;-59
2022/03/13 05:13:55;;;;;;;;;3.00;3.00;;;;;9.21;62.53;100322.66;5034072;28;45849;-59
2022/03/13 05:16:21;;;;;;;;;4.00;3.25;;;;;9.20;62.15;100320.97;5034648;28;45376;-59
2022/03/13 05:18:46;;;;;;;;;2.75;2.75;;;;;9.19;62.16;100319.28;5035798;28;45456;-59
2022/03/13 05:21:12;;;;;;;;;3.00;2.75;;;;;9.15;62.12;100321.63;5035932;28;45384;-61
2022/03/13 05:23:37;;;;;;;;;4.50;4.50;;;;;9.16;62.18;100323.28;5035180;28;45505;-59
2022/03/13 05:26:03;;;;;;;;;4.00;3.00;;;;;9.17;62.33;100326.84;5035371;28;45450;-60
2022/03/13 05:28:28;;;;;;;;;6.00;3.75;;;;;9.16;61.66;100331.50;5035604;28;45453;-60
2022/03/13 05:30:54;;;;;;;;;8.25;7.50;;;;;9.12;61.51;100319.28;5050009;28;45820;-59
2022/03/13 05:33:19;;;;;;;;;3.00;3.00;;;;;9.14;62.66;100330.03;5035549;28;45455;-59
2022/03/13 05:35:45;;;;;;;;;4.25;3.00;;;;;8.92;61.71;100302.91;5033918;28;45480;-60
2022/03/13 05:38:10;;;;;;;;;2.00;2.00;;;;;8.88;62.00;100299.75;5035311;28;45500;-59
2022/03/13 05:40:36;;;;;;;;;1.50;1.50;;;;;8.93;62.28;100301.84;5035685;28;45393;-59
2022/03/13 05:43:02;;;;;;;;;6.00;3.50;;;;;9.11;61.48;100339.50;5034971;28;45684;-60
2022/03/13 05:45:28;;;;;;;;;8.50;5.50;;;;;9.08;61.85;100334.47;5067570;28;45412;-60
2022/03/13 05:47:59;;;;;;;;;5.60;3.40;;;;;9.13;61.93;100344.78;5035137;28;45292;-60
2022/03/13 05:50:25;;;;;;;;;2.40;2.40;;;;;9.13;61.96;100339.31;5067426;28;45426;-59
2022/03/13 05:52:55;;;;;;;;;6.00;3.00;;;;;9.10;61.39;100332.34;5034994;28;46351;-60
2022/03/13 05:55:22;;;;;;;;;5.60;3.00;;;;;9.11;62.33;100344.97;5034890;28;45310;-59
2022/03/13 05:57:47;;;;;;;;;6.80;5.60;;;;;9.12;60.82;100340.38;5034981;28;45416;-60
2022/03/13 06:00:14;;;;;;;;;1.75;1.75;;;;;9.09;61.46;100353.41;5035418;28;45349;-60
2022/03/13 06:02:40;;;;;;;;;3.40;3.40;;;;;9.07;61.73;100352.78;5033679;28;47577;-59
2022/03/13 06:05:09;;;;;;;;;5.40;5.40;;;;;9.07;61.59;100351.94;5034838;28;45483;-60
2022/03/13 06:07:36;;;;;;;;;2.40;2.20;;;;;9.02;61.80;100340.78;5035141;28;45218;-60
2022/03/13 06:10:03;;;;;;;;;7.20;3.00;;;;;8.93;61.83;100326.47;5017357;28;45574;-60
2022/03/13 06:12:32;;;;;;;;;1.80;1.80;;;;;9.12;61.58;100351.31;5033418;28;45813;-60
2022/03/13 06:14:58;;;;;;;;;5.20;3.60;;;;;9.11;61.14;100347.72;5034697;28;45400;-60
2022/03/13 06:17:24;;;;;;;;;2.00;2.00;;;;;9.15;61.62;100356.34;5034999;28;45369;-60
2022/03/13 06:19:50;;;;;;;;;3.20;2.00;;;;;9.15;60.92;100364.56;5033773;28;45393;-60
2022/03/13 06:22:17;;;;;;;;;2.50;2.50;;;;;8.92;60.91;100324.78;5034745;28;45291;-61
2022/03/13 06:24:43;;;;;;;;;3.60;2.80;;;;;9.15;60.36;100356.34;5034616;28;45516;-61
2022/03/13 06:27:10;;;;;;;;;2.00;2.00;;;;;9.17;60.28;100366.03;5034789;28;45511;-61
2022/03/13 06:29:39;;;;;;;;;2.40;2.20;;;;;9.20;60.58;100370.25;5034831;28;45321;-61
2022/03/13 06:32:05;;;;;;;;;2.80;2.80;;;;;9.21;60.67;100367.31;4916674;28;45989;-61
2022/03/13 06:34:31;;;;;;;;;1.80;1.80;;;;;8.95;60.31;100330.69;5031627;28;45638;-61
2022/03/13 06:36:56;;;;;;;;;3.00;3.00;;;;;9.19;60.85;100366.66;5034927;28;45397;-61
2022/03/13 06:39:22;;;;;;;;;2.00;2.00;;;;;9.23;60.66;100369.81;5035124;28;45323;-60
2022/03/13 06:41:48;;;;;;;;;4.25;2.25;;;;;9.21;60.83;100369.19;5035228;28;46267;-62
2022/03/13 06:44:13;;;;;;;;;3.20;2.60;;;;;9.29;60.96;100363.50;5037893;28;45490;-62
2022/03/13 06:46:39;;;;;;;;;1.75;1.75;;;;;9.20;59.83;100348.34;5038591;28;45454;-61
2022/03/13 06:49:05;;;;;;;;;2.25;2.25;;;;;9.30;60.20;100378.03;5070725;28;45465;-61
2022/03/13 06:51:31;;;;;;;;;3.00;3.00;;;;;9.34;60.66;100369.19;5053170;28;48535;-61
2022/03/13 06:53:57;;;;;;;;;3.20;2.00;;;;;9.13;60.07;100325.63;5038000;28;45444;-61
2022/03/13 06:56:22;;;;;;;;;2.00;2.00;;;;;9.41;59.55;100373.81;5037982;28;45842;-60
2022/03/13 06:58:48;;;;;;;;;4.50;3.00;;;;;9.40;60.09;100367.47;5038445;28;45411;-60
2022/03/13 07:01:13;;;;;;;;;3.00;3.00;;;;;9.44;60.12;100374.22;5038298;28;46895;-61
2022/03/13 07:03:39;;;;;;;;;3.00;2.75;;;;;9.46;59.68;100376.75;5038020;28;45342;-62
2022/03/13 07:06:05;;;;;;;;;2.80;2.20;;;;;9.46;59.68;100374.00;5037981;28;45397;-61
2022/03/13 07:08:32;;;;;;;;;2.00;2.00;;;;;9.48;59.77;100372.75;5038609;28;45534;-61
2022/03/13 07:11:01;;;;;;;;;4.00;2.40;;;;;9.33;59.06;100353.81;5036932;28;45750;-60
2022/03/13 07:13:32;;;;;;;;;1.20;1.20;;;;;9.49;59.50;100370.84;5038128;28;45376;-62
2022/03/13 07:16:01;;;;;;;;;2.00;2.00;;;;;9.54;58.90;100368.31;5038041;28;45369;-61
2022/03/13 07:18:27;;;;;;;;;2.00;2.00;;;;;9.27;58.59;100307.25;5020371;28;45633;-61
2022/03/13 07:20:53;;;;;;;;;2.00;2.00;;;;;9.66;59.21;100367.66;5036193;28;46471;-61
2022/03/13 07:23:18;;;;;;;;;2.25;2.00;;;;;9.69;59.23;100367.19;5036307;28;45722;-61
2022/03/13 07:25:44;;;;;;;;;2.75;2.75;;;;;9.71;58.24;100362.38;5037499;28;45283;-60
2022/03/13 07:28:09;;;;;;;;;0.00;0.00;;;;;9.69;58.53;100357.09;5038124;28;45350;-61
2022/03/13 07:30:35;;;;;;;;;2.00;2.00;;;;;9.72;58.14;100364.88;5029534;28;45722;-60
2022/03/13 07:33:00;;;;;;;;;2.00;2.00;;;;;9.50;58.41;100336.91;5044949;28;45387;-62
2022/03/13 07:35:27;;;;;;;;;3.50;2.00;;;;;9.36;58.24;100315.00;5061443;28;45355;-61
2022/03/13 07:37:52;;;;;;;;;1.00;1.00;;;;;9.70;58.57;100375.22;5053095;28;45312;-61
2022/03/13 07:40:20;;;;;;;;;3.00;3.00;;;;;9.64;58.39;100367.84;5070083;28;45587;-62
2022/03/13 07:42:47;;;;;;;;;2.00;2.00;;;;;9.66;58.25;100382.19;5068790;28;45435;-60
2022/03/13 07:45:12;;;;;;;;;1.00;1.00;;;;;9.52;58.61;100361.34;5037085;28;45322;-61
2022/03/13 07:47:38;;;;;;;;;1.75;1.75;;;;;9.49;58.02;100357.13;5037921;28;45353;-61
2022/03/13 07:50:04;;;;;;;;;2.75;2.00;;;;;9.64;57.98;100381.56;5035732;28;45259;-61
2022/03/13 07:52:30;;;;;;;;;5.40;2.00;;;;;9.55;57.40;100366.41;5036885;28;45429;-61
2022/03/13 07:54:55;;;;;;;;;2.00;2.00;;;;;9.57;57.87;100367.88;5036091;28;45373;-61
2022/03/13 07:57:21;;;;;;;;;2.00;1.00;;;;;9.55;58.19;100355.47;5037563;28;45394;-60
2022/03/13 07:59:47;;;;;;;;;2.25;2.25;;;;;9.62;57.18;100368.06;5035689;28;46290;-61
2022/03/13 08:02:14;;;;;;;;;1.00;1.00;;;;;9.65;57.70;100366.78;5036112;28;45684;-61
2022/03/13 08:04:40;;;;;;;;;2.00;2.00;;;;;9.69;58.59;100375.44;5037173;28;45400;-61
2022/03/13 08:07:06;;;;;;;;;2.20;2.20;;;;;9.71;58.47;100374.16;5036961;28;45531;-60
2022/03/13 08:09:31;;;;;;;;;3.00;3.00;;;;;9.72;57.37;100372.28;5037073;28;46868;-60
2022/03/13 08:11:57;;;;;;;;;3.50;3.50;;;;;9.51;57.63;100335.88;5037120;28;45410;-59
2022/03/13 08:14:22;;;;;;;;;5.00;4.00;;;;;9.77;57.00;100367.00;5036050;28;45520;-60
2022/03/13 08:16:48;;;;;;;;;2.75;2.75;;;;;9.82;57.25;100366.34;5037430;28;45259;-61
2022/03/13 08:19:14;;;;;;;;;2.25;2.25;;;;;9.76;57.58;100351.56;5036780;28;46544;-60
2022/03/13 08:21:40;;;;;;;;;2.25;2.25;;;;;9.89;58.01;100362.50;5019531;28;45293;-59
2022/03/13 08:24:07;;;;;;;;;2.00;2.00;;;;;9.94;57.29;100366.50;5036712;28;45270;-60
2022/03/13 08:26:38;;;;;;;;;2.20;2.20;;;;;9.95;57.73;100357.22;5035670;28;45681;-59
2022/03/13 08:29:05;;;;;;;;;3.00;3.00;;;;;10.01;57.35;100361.81;5037064;28;46141;-63
2022/03/13 08:31:31;;;;;;;;;3.80;3.80;;;;;9.90;57.00;100333.19;5035428;28;45337;-59
2022/03/13 08:33:57;;;;;;;;;2.00;2.00;;;;;10.06;57.03;100356.53;5036800;28;45375;-60
2022/03/13 08:36:22;;;;;;;;;3.50;3.50;;;;;10.10;56.72;100356.94;5052354;28;45645;-59
2022/03/13 08:38:48;;;;;;;;;7.50;3.25;;;;;10.13;56.69;100354.59;5007399;28;46829;-59
2022/03/13 08:41:13;;;;;;;;;3.00;3.00;;;;;10.21;56.70;100359.00;5034840;28;45389;-58
2022/03/13 08:43:39;;;;;;;;;3.50;2.50;;;;;10.04;56.94;100323.00;5036760;28;45352;-59
2022/03/13 08:46:05;;;;;;;;;2.75;2.00;;;;;10.26;56.02;100355.59;5036581;28;45654;-60
2022/03/13 08:48:31;;;;;;;;;2.80;2.80;;;;;10.36;56.00;100352.38;5035421;28;45859;-59
2022/03/13 08:50:57;;;;;;;;;1.50;1.50;;;;;10.40;56.66;100359.94;5036389;28;45335;-57
2022/03/13 08:53:23;;;;;;;;;3.60;2.00;;;;;10.46;55.92;100350.00;5036742;28;45387;-61
2022/03/13 08:55:48;;;;;;;;;2.20;2.00;;;;;10.56;55.21;100355.00;5036568;28;45366;-60
2022/03/13 08:58:14;;;;;;;;;3.00;2.00;;;;;10.66;54.73;100349.88;5051069;28;47059;-62
2022/03/13 09:00:41;;;;;;;;;4.00;2.00;;;;;10.80;54.50;100344.28;5034757;28;45582;-60
2022/03/13 09:03:07;;;;;;;;;4.00;2.00;;;;;10.91;54.11;100335.34;5036023;28;45509;-59
2022/03/13 09:05:32;;;;;;;;;1.00;1.00;;;;;11.10;54.05;100362.84;5051590;28;45386;-61
2022/03/13 09:07:58;;;;;;;;;3.75;2.50;;;;;11.23;53.47;100354.50;5035846;28;45400;-60
2022/03/13 09:10:24;;;;;;;;;1.00;1.00;;;;;11.36;53.87;100370.00;5035605;28;45443;-60
2022/03/13 09:12:49;;;;;;;;;2.75;1.00;;;;;11.47;53.34;100364.84;5034836;28;45421;-60
2022/03/13 09:15:15;;;;;;;;;2.00;2.00;;;;;11.55;52.88;100367.28;5035900;28;45582;-59
2022/03/13 09:17:41;;;;;;;;;1.75;1.75;;;;;11.64;51.72;100365.91;5034413;28;45461;-60
2022/03/13 09:20:07;;;;;;;;;1.25;1.00;;;;;11.69;52.10;100351.44;5034717;27;45407;-60
2022/03/13 09:22:34;;;;;;;;;3.80;3.80;;;;;11.58;52.34;100331.06;5066701;28;45483;-60
2022/03/13 09:24:59;;;;;;;;;2.60;2.60;;;;;11.33;52.14;100277.03;5036053;28;45522;-60
2022/03/13 09:27:26;;;;;;;;;3.25;2.00;;;;;11.91;51.95;100357.34;5034994;28;45401;-58
2022/03/13 09:29:52;;;;;;;;;1.00;1.00;;;;;11.94;51.68;100353.28;5034034;28;45446;-58
2022/03/13 09:32:18;;;;;;;;;2.20;1.00;;;;;11.97;51.71;100346.50;5032811;28;45455;-58
2022/03/13 09:34:44;;;;;;;;;0.00;0.00;;;;;12.04;51.40;100358.28;5035793;28;45570;-57
2022/03/13 09:37:09;;;;;;;;;0.75;0.75;;;;;12.04;50.73;100358.28;5035583;28;45682;-58
2022/03/13 09:39:36;;;;;;;;;0.00;0.00;;;;;11.96;50.76;100356.66;5011504;28;45444;-58
2022/03/13 09:42:02;;;;;;;;;1.80;1.80;;;;;11.90;51.43;100371.34;5035140;28;45499;-56
2022/03/13 09:44:28;;;;;;;;;1.00;1.00;;;;;11.89;51.59;100361.38;5066414;28;45640;-56
2022/03/13 09:46:54;;;;;;;;;1.00;1.00;;;;;11.95;51.42;100348.63;5017065;28;46651;-56
2022/03/13 09:49:20;;;;;;;;;1.00;1.00;;;;;11.99;51.33;100349.84;5035207;28;45352;-59
2022/03/13 09:51:46;;;;;;;;;0.20;0.20;;;;;11.95;51.41;100352.22;5067030;28;45422;-60
2022/03/13 09:54:13;;;;;;;;;1.00;1.00;;;;;11.92;51.48;100358.19;5034938;28;45340;-56
2022/03/13 09:56:38;;;;;;;;;1.00;1.00;;;;;11.85;51.80;100350.00;5033407;28;45850;-58
2022/03/13 09:59:04;;;;;;;;;1.00;1.00;;;;;11.84;51.46;100364.81;5034632;28;45407;-58
2022/03/13 10:01:30;;;;;;;;;2.00;2.00;;;;;11.75;51.67;100352.47;5033929;28;45347;-57
2022/03/13 10:03:55;;;;;;;;;1.00;1.00;;;;;11.37;51.86;100288.41;5033869;28;45330;-59
2022/03/13 10:06:21;;;;;;;;;2.25;2.25;;;;;11.88;52.39;100365.22;5033533;28;48331;-57
2022/03/13 10:08:46;;;;;;;;;1.25;1.25;;;;;11.69;51.97;100321.22;5065502;28;45395;-59
2022/03/13 10:11:12;;;;;;;;;0.25;0.25;;;;;11.80;51.65;100325.13;5067312;28;45447;-59
2022/03/13 10:13:46;;;;;;;;;1.00;1.00;;;;;11.89;51.45;100344.88;5067291;28;45398;-60
2022/03/13 10:16:19;;;;;;;;;2.60;1.20;;;;;11.78;51.98;100327.25;5050555;28;47414;-60
2022/03/13 10:18:45;;;;;;;;;2.40;2.40;;;;;12.07;52.34;100360.56;5041362;28;45424;-59
2022/03/13 10:21:13;;;;;;;;;2.00;2.00;;;;;12.03;51.42;100365.69;5029700;28;45369;-61
2022/03/13 10:23:39;;;;;;;;;1.00;1.00;;;;;11.99;51.73;100361.69;5041417;28;45576;-63
2022/03/13 10:26:05;;;;;;;;;1.60;1.60;;;;;11.98;51.89;100349.00;5040801;28;46143;-60
2022/03/13 10:28:32;;;;;;;;;1.50;1.50;;;;;11.95;51.24;100343.13;5056492;28;45392;-60
2022/03/13 10:30:58;;;;;;;;;2.40;2.40;;;;;11.52;51.82;100269.63;5056311;28;45368;-60
2022/03/13 10:33:24;;;;;;;;;2.00;2.00;;;;;11.97;51.58;100344.59;5040786;28;45560;-60
2022/03/13 10:36:18;;;;;;;;;1.80;1.80;;;;;11.85;52.53;100321.69;5039841;28;46335;-60
2022/03/13 10:38:44;;;;;;;;;2.00;2.00;;;;;12.02;52.66;100347.47;5041297;28;45687;-60
2022/03/13 10:41:12;;;;;;;;;1.80;1.80;;;;;11.99;52.59;100342.44;5013576;28;45596;-60
2022/03/13 10:43:58;;;;;;;;;1.00;1.00;;;;;11.87;52.60;100325.88;5066571;28;45734;-60
2022/03/13 10:46:24;;;;;;;;;3.00;3.00;;;;;11.92;52.78;100339.75;5040715;28;45417;-59
2022/03/13 10:48:50;;;;;;;;;2.40;2.00;;;;;11.71;52.67;100302.59;5041015;28;45824;-59
2022/03/13 10:51:17;;;;;;;;;2.00;2.00;;;;;11.92;52.92;100327.94;5039971;28;45780;-59
2022/03/13 10:53:42;;;;;;;;;2.00;2.00;;;;;11.77;52.73;100309.94;5039738;28;45341;-59
2022/03/13 10:56:09;;;;;;;;;1.00;1.00;;;;;12.01;52.43;100333.97;5039184;28;45332;-61
2022/03/13 10:58:45;;;;;;;;;2.40;1.60;;;;;12.01;52.48;100332.03;5041446;28;45762;-59
2022/03/13 11:01:12;;;;;;;;;2.40;2.40;;;;;12.10;52.27;100335.34;5041275;28;45463;-59
2022/03/13 11:03:50;;;;;;;;;6.00;3.00;;;;;12.15;52.43;100337.38;5041609;28;45352;-60
2022/03/13 11:06:16;;;;;;;;;2.80;2.80;;;;;11.96;52.22;100322.81;5040838;28;46556;-61
2022/03/13 11:08:41;;;;;;;;;6.00;2.00;;;;;12.05;52.36;100336.03;5039814;28;45432;-61
2022/03/13 11:11:12;;;;;;;;;3.00;2.00;;;;;12.04;52.42;100331.63;5041222;28;45420;-61
2022/03/13 11:13:39;;;;;;;;;2.60;2.60;;;;;12.11;52.46;100342.53;5040184;28;45357;-60
2022/03/13 11:16:09;;;;;;;;;2.00;2.00;;;;;12.02;52.31;100335.63;5040440;28;45937;-61
2022/03/13 11:18:35;;;;;;;;;5.20;3.20;;;;;12.03;52.91;100337.31;5072446;28;45411;-61
2022/03/13 11:21:01;;;;;;;;;3.60;3.60;;;;;11.90;52.79;100319.09;5030974;28;45532;-59
2022/03/13 11:23:33;;;;;;;;;2.00;2.00;;;;;12.01;52.39;100340.28;5040894;28;45287;-61
2022/03/13 11:25:59;;;;;;;;;4.60;4.20;;;;;12.03;52.48;100340.06;5056067;28;47102;-61
2022/03/13 11:28:26;;;;;;;;;2.00;2.00;;;;;11.77;53.02;100312.69;5019817;28;45888;-62
2022/03/13 11:30:52;;;;;;;;;3.40;2.20;;;;;11.77;53.13;100314.56;5036013;28;45474;-61